createdAt,value
2023-04-16T00:01:15.290Z,8.03
2023-04-16T00:06:18.458Z,7.10
2023-04-16T00:11:22.298Z,7.23
2023-04-16T00:16:25.961Z,7.13
2023-04-16T00:21:29.218Z,7.60
2023-04-16T00:26:32.642Z,7.80
2023-04-16T00:31:36.054Z,7.87
2023-04-16T00:36:39.280Z,6.90
2023-04-16T00:41:44.082Z,7.93
2023-04-16T00:46:47.784Z,7.77
2023-04-16T00:51:51.610Z,7.17
2023-04-16T00:56:54.887Z,8.13
2023-04-16T01:01:58.122Z,7.83
2023-04-16T01:07:01.500Z,8.00
2023-04-16T01:12:04.898Z,7.43
2023-04-16T01:17:08.621Z,8.43
2023-04-16T01:22:12.110Z,7.73
2023-04-16T01:27:15.355Z,8.07
2023-04-16T01:32:19.002Z,8.70
2023-04-16T01:37:22.220Z,8.30
2023-04-16T01:42:25.569Z,8.70
2023-04-16T01:47:29.069Z,8.33
2023-04-16T01:52:32.263Z,8.50
2023-04-16T01:57:35.772Z,8.60
2023-04-16T02:02:40.045Z,9.17
2023-04-16T02:07:43.454Z,7.60
2023-04-16T02:12:46.719Z,8.90
2023-04-16T02:17:54.251Z,9.07
2023-04-16T02:22:57.512Z,10.03
2023-04-16T02:28:00.838Z,10.53
2023-04-16T02:33:06.104Z,10.70
2023-04-16T02:38:09.623Z,11.67
2023-04-16T02:43:12.874Z,10.20
2023-04-16T02:48:16.055Z,11.33
2023-04-16T02:53:19.468Z,11.50
2023-04-16T02:58:24.718Z,11.13
2023-04-16T03:03:28.150Z,11.73
2023-04-16T03:08:31.494Z,11.40
2023-04-16T03:13:34.899Z,11.27
2023-04-16T03:18:38.242Z,11.80
2023-04-16T03:23:41.626Z,12.40
2023-04-16T03:28:44.869Z,12.57
2023-04-16T03:33:48.288Z,12.60
2023-04-16T03:38:51.640Z,12.03
2023-04-16T03:43:54.918Z,11.80
2023-04-16T03:48:58.116Z,12.23
2023-04-16T03:54:01.448Z,12.57
2023-04-16T03:59:04.984Z,13.40
2023-04-16T04:04:09.973Z,12.37
2023-04-16T04:09:14.020Z,12.53
2023-04-16T04:14:17.208Z,11.00
2023-04-16T04:19:20.460Z,12.60
2023-04-16T04:24:23.703Z,11.53
2023-04-16T04:29:27.030Z,11.53
2023-04-16T04:34:30.178Z,12.73
2023-04-16T04:39:33.432Z,11.87
2023-04-16T04:44:36.642Z,11.43
2023-04-16T04:49:40.067Z,11.87
2023-04-16T04:54:43.352Z,12.43
2023-04-16T04:59:46.562Z,12.03
2023-04-16T05:04:49.853Z,12.20
2023-04-16T05:09:53.173Z,12.23
2023-04-16T05:14:56.464Z,11.87
2023-04-16T05:19:59.657Z,13.73
2023-04-16T05:25:03.247Z,14.37
2023-04-16T05:30:07.625Z,14.63
2023-04-16T05:35:11.470Z,15.30
2023-04-16T05:40:15.042Z,14.73
2023-04-16T05:45:18.310Z,15.23
2023-04-16T05:50:21.952Z,13.67
2023-04-16T05:55:25.284Z,14.20
2023-04-16T06:00:28.579Z,13.07
2023-04-16T06:05:31.967Z,13.23
2023-04-16T06:10:35.429Z,13.37
2023-04-16T06:15:38.948Z,12.77
2023-04-16T06:20:42.242Z,11.83
2023-04-16T06:25:45.538Z,11.60
2023-04-16T06:30:48.850Z,11.63
2023-04-16T06:35:52.086Z,12.03
2023-04-16T06:40:55.480Z,10.97
2023-04-16T06:45:58.761Z,12.07
2023-04-16T06:51:02.331Z,10.60
2023-04-16T06:56:06.634Z,9.60
2023-04-16T07:01:10.589Z,11.13
2023-04-16T07:06:14.168Z,10.37
2023-04-16T07:11:17.605Z,10.57
2023-04-16T07:16:21.406Z,10.30
2023-04-16T07:21:24.693Z,10.07
2023-04-16T07:26:28.132Z,9.47
2023-04-16T07:31:31.574Z,8.80
2023-04-16T07:36:35.004Z,9.03
2023-04-16T07:41:41.400Z,9.63
2023-04-16T07:46:47.320Z,10.33
2023-04-16T07:51:50.989Z,10.77
2023-04-16T07:56:54.182Z,11.27
2023-04-16T08:01:57.769Z,11.53
2023-04-16T08:07:01.187Z,12.50
2023-04-16T08:12:04.893Z,11.17
2023-04-16T08:17:08.109Z,9.33
2023-04-16T08:22:14.448Z,10.63
2023-04-16T08:27:19.712Z,9.70
2023-04-16T08:32:23.739Z,10.10
2023-04-16T08:37:29.773Z,9.73
2023-04-16T08:42:38.235Z,9.97
2023-04-16T08:47:42.333Z,9.70
2023-04-16T08:53:14.230Z,9.43
2023-04-16T08:58:23.052Z,9.30
2023-04-16T09:03:27.580Z,8.10
2023-04-16T09:08:32.652Z,6.93
2023-04-16T09:13:37.651Z,7.60
2023-04-16T09:18:41.681Z,6.17
2023-04-16T09:23:45.633Z,6.63
2023-04-16T09:28:51.715Z,7.87
2023-04-16T09:34:06.326Z,6.97
2023-04-16T09:39:20.464Z,7.90
2023-04-16T09:44:37.249Z,8.00
2023-04-16T09:49:43.778Z,9.13
2023-04-16T09:54:51.948Z,8.87
2023-04-16T10:00:01.491Z,8.37
2023-04-16T10:05:05.317Z,9.10
2023-04-16T10:10:09.019Z,9.70
2023-04-16T10:15:12.344Z,10.10
2023-04-16T10:20:17.289Z,8.27
2023-04-16T10:25:23.495Z,8.83
2023-04-16T10:30:27.639Z,10.33
2023-04-16T10:35:31.940Z,9.57
2023-04-16T10:40:36.058Z,10.33
2023-04-16T10:45:39.189Z,9.63
2023-04-16T10:50:42.452Z,9.17
2023-04-16T10:56:06.595Z,9.77
2023-04-16T11:01:14.183Z,9.70
2023-04-16T11:06:24.428Z,10.53
2023-04-16T11:11:29.677Z,9.97
2023-04-16T11:16:33.538Z,9.93
2023-04-16T11:21:36.954Z,9.40
2023-04-16T11:26:40.513Z,9.07
2023-04-16T11:31:50.030Z,9.57
2023-04-16T11:36:53.466Z,8.63
2023-04-16T11:41:56.938Z,8.37
2023-04-16T11:47:07.882Z,8.47
2023-04-16T11:52:11.673Z,8.47
2023-04-16T11:57:15.574Z,8.53
2023-04-16T12:02:18.949Z,7.93
2023-04-16T12:07:22.223Z,8.10
2023-04-16T12:12:33.051Z,8.63
2023-04-16T12:17:38.744Z,9.50
2023-04-16T12:22:49.858Z,9.33
2023-04-16T12:27:56.253Z,8.17
2023-04-16T12:33:19.906Z,13.67
2023-04-16T12:38:24.597Z,11.57
2023-04-16T12:43:28.907Z,9.30
2023-04-16T12:48:33.350Z,10.40
2023-04-16T12:53:37.114Z,12.60
2023-04-16T12:58:40.518Z,12.73
2023-04-16T13:03:43.931Z,11.70
2023-04-16T13:08:47.325Z,9.10
2023-04-16T13:13:50.838Z,9.13
2023-04-16T13:18:53.903Z,9.60
2023-04-16T13:23:57.602Z,8.97
2023-04-16T13:29:01.712Z,8.87
2023-04-16T13:34:06.024Z,12.47
2023-04-16T13:39:12.403Z,13.30
2023-04-16T13:44:16.307Z,15.27
2023-04-16T13:49:19.956Z,16.60
2023-04-16T13:54:23.951Z,10.93
2023-04-16T13:59:27.524Z,10.00
2023-04-16T14:04:32.149Z,12.03
2023-04-16T14:09:35.390Z,10.43
2023-04-16T14:14:38.592Z,9.37
2023-04-16T14:19:43.099Z,8.13
2023-04-16T14:24:46.519Z,8.73
2023-04-16T14:29:49.780Z,8.63
2023-04-16T14:34:53.494Z,11.07
2023-04-16T14:39:57.890Z,9.90
2023-04-16T14:45:01.957Z,9.53
2023-04-16T14:50:12.769Z,5.47
2023-04-16T14:55:16.284Z,6.00
2023-04-16T15:00:21.031Z,5.17
2023-04-16T15:05:24.260Z,5.73
2023-04-16T15:10:29.056Z,5.83
2023-04-16T15:15:32.537Z,6.30
2023-04-16T15:20:37.113Z,5.93
2023-04-16T15:25:42.257Z,6.80
2023-04-16T15:30:46.094Z,5.83
2023-04-16T15:35:55.976Z,6.63
2023-04-16T15:41:02.231Z,6.70
2023-04-16T15:46:07.531Z,6.60
2023-04-16T15:51:12.684Z,6.67
2023-04-16T15:56:16.613Z,5.93
2023-04-16T16:01:20.330Z,5.60
2023-04-16T16:06:24.268Z,5.37
2023-04-16T16:11:29.813Z,6.83
2023-04-16T16:16:36.916Z,6.17
2023-04-16T16:21:43.487Z,6.60
2023-04-16T16:26:47.783Z,6.27
2023-04-16T16:31:53.305Z,5.43
2023-04-16T16:36:57.392Z,6.17
2023-04-16T16:42:02.105Z,5.60
2023-04-16T16:47:06.803Z,5.87
2023-04-16T16:52:11.902Z,5.97
2023-04-16T16:57:16.685Z,7.43
2023-04-16T17:02:22.134Z,7.17
2023-04-16T17:07:27.491Z,7.93
2023-04-16T17:12:31.962Z,7.50
2023-04-16T17:17:36.309Z,7.40
2023-04-16T17:22:41.762Z,7.37
2023-04-16T17:27:47.385Z,7.07
2023-04-16T17:32:51.561Z,4.53
2023-04-16T17:37:55.549Z,3.97
2023-04-16T17:42:59.005Z,4.50
2023-04-16T17:48:04.183Z,4.63
2023-04-16T17:53:09.701Z,4.97
2023-04-16T17:58:13.927Z,6.67
2023-04-16T18:03:22.175Z,6.57
2023-04-16T18:08:28.797Z,6.93
2023-04-16T18:13:35.650Z,8.13
2023-04-16T18:18:40.979Z,7.17
2023-04-16T18:23:47.873Z,7.40
2023-04-16T18:28:55.731Z,7.00
2023-04-16T18:33:59.772Z,7.53
2023-04-16T18:39:04.422Z,7.80
2023-04-16T18:44:12.117Z,7.13
2023-04-16T18:49:17.053Z,6.67
2023-04-16T18:54:22.206Z,6.20
2023-04-16T18:59:30.308Z,5.30
2023-04-16T19:04:39.076Z,6.47
2023-04-16T19:09:45.403Z,6.63
2023-04-16T19:14:51.482Z,7.10
2023-04-16T19:19:58.157Z,5.60
2023-04-16T19:25:04.074Z,6.17
2023-04-16T19:30:09.888Z,6.80
2023-04-16T19:35:17.295Z,5.77
2023-04-16T19:40:22.405Z,6.53
2023-04-16T19:45:27.940Z,6.70
2023-04-16T19:50:32.674Z,7.17
2023-04-16T19:55:38.116Z,7.43
2023-04-16T20:00:42.925Z,8.20
2023-04-16T20:05:51.279Z,7.73
2023-04-16T20:10:56.036Z,7.27
2023-04-16T20:16:03.798Z,8.27
2023-04-16T20:21:12.041Z,8.17
2023-04-16T20:26:18.882Z,7.87
2023-04-16T20:31:23.691Z,8.30
2023-04-16T20:36:31.520Z,8.23
2023-04-16T20:41:35.337Z,8.37
2023-04-16T20:46:39.213Z,8.67
2023-04-16T20:51:42.626Z,8.30
2023-04-16T20:56:47.220Z,8.70
2023-04-16T21:01:52.637Z,9.43
2023-04-16T21:06:56.415Z,9.17
2023-04-16T21:11:59.710Z,8.50
2023-04-16T21:17:02.948Z,8.00
2023-04-16T21:22:06.338Z,7.67
2023-04-16T21:27:09.609Z,7.87
2023-04-16T21:32:13.799Z,7.03
2023-04-16T21:37:17.081Z,6.90
2023-04-16T21:42:20.946Z,7.67
2023-04-16T21:47:24.159Z,7.93
2023-04-16T21:52:27.754Z,7.97
2023-04-16T21:57:31.087Z,8.13
2023-04-16T22:02:34.524Z,9.07
2023-04-16T22:07:38.204Z,9.10
2023-04-16T22:12:41.528Z,8.90
2023-04-16T22:17:44.843Z,10.10
2023-04-16T22:22:48.675Z,9.97
2023-04-16T22:27:51.899Z,11.17
2023-04-16T22:32:55.569Z,10.00
2023-04-16T22:37:58.813Z,10.27
2023-04-16T22:43:02.003Z,10.87
2023-04-16T22:48:05.395Z,11.00
2023-04-16T22:53:09.029Z,10.93
2023-04-16T22:58:12.153Z,11.03
2023-04-16T23:03:16.085Z,12.73
2023-04-16T23:08:19.386Z,12.90
2023-04-16T23:13:22.633Z,12.33
2023-04-16T23:18:26.038Z,14.60
2023-04-16T23:23:30.304Z,14.03
2023-04-16T23:28:33.499Z,14.60
2023-04-16T23:33:36.864Z,13.63
2023-04-16T23:38:40.138Z,13.67
2023-04-16T23:43:43.374Z,14.57
2023-04-16T23:48:46.689Z,13.07
2023-04-16T23:53:49.890Z,12.47
2023-04-16T23:58:53.661Z,11.87
